Time;durP1;ratioP1;P1;durP2;ratioP2;P2;SDS_P1;SDS_P2;PMS_P1;PMS_P2;Temp;Humidity;BMP_temperature;BMP_pressure;BME280_temperature;BME280_humidity;BME280_pressure;Samples;Min_cycle;Max_cycle;Signal;HPM_P1;HPM_P2
2021/03/01 00:01:04;;;;;;;51.97;23.80;;;5.60;99.90;;;;;;5037322;28;20263;-80
2021/03/01 00:03:49;;;;;;;49.70;24.40;;;5.60;99.90;;;;;;5038838;28;20267;-80
2021/03/01 00:06:34;;;;;;;49.87;23.63;;;5.60;99.90;;;;;;5038408;28;20223;-80
2021/03/01 00:09:18;;;;;;;51.77;25.37;;;5.60;99.90;;;;;;5036110;28;20207;-80
2021/03/01 00:12:04;;;;;;;57.57;26.57;;;5.60;99.90;;;;;;5036306;28;20327;-80
2021/03/01 00:14:50;;;;;;;53.83;25.67;;;5.70;99.90;;;;;;5023131;28;20235;-80
2021/03/01 00:17:35;;;;;;;52.63;25.03;;;5.70;99.90;;;;;;5031556;28;20222;-80
2021/03/01 00:20:20;;;;;;;50.43;24.33;;;5.70;99.90;;;;;;5035803;28;20266;-80
2021/03/01 00:23:05;;;;;;;50.90;24.30;;;5.70;99.90;;;;;;5034077;28;20278;-80
2021/03/01 00:25:50;;;;;;;50.87;25.57;;;5.70;99.90;;;;;;5033695;28;20274;-81
2021/03/01 00:28:35;;;;;;;47.73;24.47;;;5.70;99.90;;;;;;5035433;28;20203;-81
2021/03/01 00:31:20;;;;;;;51.13;23.30;;;5.80;99.90;;;;;;5034777;28;20505;-80
2021/03/01 00:34:05;;;;;;;44.83;22.30;;;5.80;99.90;;;;;;5037310;28;20203;-82
2021/03/01 00:36:51;;;;;;;45.90;23.40;;;5.80;99.90;;;;;;5037211;28;20207;-80
2021/03/01 00:39:35;;;;;;;45.27;22.83;;;5.80;99.90;;;;;;5035107;28;20227;-81
2021/03/01 00:42:22;;;;;;;48.27;23.40;;;5.80;99.90;;;;;;5035331;28;20772;-80
2021/03/01 00:45:08;;;;;;;45.47;22.83;;;5.80;99.90;;;;;;5034298;28;20346;-80
2021/03/01 00:47:54;;;;;;;45.53;23.27;;;5.80;99.90;;;;;;5034002;28;20203;-81
2021/03/01 00:50:38;;;;;;;43.87;22.90;;;5.80;99.90;;;;;;5034575;28;20310;-81
2021/03/01 00:53:25;;;;;;;44.57;24.07;;;5.80;99.90;;;;;;5030907;28;20220;-81
2021/03/01 00:56:09;;;;;;;44.77;24.60;;;5.90;99.90;;;;;;5025827;28;20262;-81
2021/03/01 00:58:54;;;;;;;39.47;22.03;;;5.90;99.90;;;;;;5030115;28;20575;-80
2021/03/01 01:01:39;;;;;;;42.77;20.90;;;5.90;99.90;;;;;;5028531;28;20246;-80
2021/03/01 01:04:25;;;;;;;38.93;21.80;;;5.90;99.90;;;;;;5023406;28;20257;-80
2021/03/01 01:07:09;;;;;;;37.87;19.37;;;5.90;99.90;;;;;;5036638;28;20211;-80
2021/03/01 01:09:54;;;;;;;39.40;21.37;;;5.90;99.90;;;;;;5037365;28;20206;-80
2021/03/01 01:12:39;;;;;;;42.20;23.53;;;5.90;99.90;;;;;;5034917;28;20574;-80
2021/03/01 01:15:24;;;;;;;39.23;22.00;;;5.90;99.90;;;;;;5035355;28;20219;-80
2021/03/01 01:18:09;;;;;;;39.93;22.13;;;5.90;99.90;;;;;;5023397;28;20215;-80
2021/03/01 01:20:55;;;;;;;43.43;24.40;;;5.90;99.90;;;;;;5035701;28;20285;-80
2021/03/01 01:23:40;;;;;;;38.87;20.13;;;5.90;99.90;;;;;;5027194;28;20207;-80
2021/03/01 01:26:25;;;;;;;40.57;22.07;;;5.90;99.90;;;;;;5024948;28;20291;-80
2021/03/01 01:29:09;;;;;;;41.73;22.20;;;5.90;99.90;;;;;;5024999;28;20208;-80
2021/03/01 01:31:54;;;;;;;41.40;22.93;;;5.90;99.90;;;;;;5034717;28;20222;-80
2021/03/01 01:34:39;;;;;;;40.33;22.23;;;5.90;99.90;;;;;;5023632;28;20207;-80
2021/03/01 01:37:24;;;;;;;36.90;21.43;;;5.90;99.90;;;;;;5035731;28;20762;-80
2021/03/01 01:40:12;;;;;;;40.97;23.47;;;5.90;99.90;;;;;;5023961;28;20571;-80
2021/03/01 01:42:56;;;;;;;40.77;22.77;;;5.90;99.90;;;;;;5037366;28;20206;-80
2021/03/01 01:45:44;;;;;;;38.10;22.90;;;5.90;99.90;;;;;;5033770;28;20239;-80
2021/03/01 01:48:29;;;;;;;42.33;23.37;;;5.90;99.90;;;;;;5040806;28;20254;-80
2021/03/01 01:51:14;;;;;;;42.00;22.40;;;5.90;99.90;;;;;;5037612;28;20715;-80
2021/03/01 01:54:00;;;;;;;42.97;21.90;;;5.90;99.90;;;;;;5040472;28;20203;-80
2021/03/01 01:56:45;;;;;;;39.60;21.77;;;5.90;99.90;;;;;;5041006;28;20276;-80
2021/03/01 01:59:31;;;;;;;42.00;23.30;;;5.90;99.90;;;;;;5039634;28;20203;-80
2021/03/01 02:02:16;;;;;;;38.80;21.67;;;5.90;99.90;;;;;;5043980;28;20230;-80
2021/03/01 02:05:06;;;;;;;38.97;22.73;;;5.90;99.90;;;;;;5041552;28;20243;-80
2021/03/01 02:07:55;;;;;;;38.60;21.40;;;5.90;99.90;;;;;;5036608;28;20621;-80
2021/03/01 02:10:46;;;;;;;45.63;24.30;;;5.90;99.90;;;;;;5043330;28;20235;-80
2021/03/01 02:13:37;;;;;;;40.93;21.30;;;5.90;99.90;;;;;;5042139;28;20279;-80
2021/03/01 02:16:30;;;;;;;43.63;26.17;;;5.90;99.90;;;;;;5039014;28;20690;-80
2021/03/01 02:19:15;;;;;;;38.87;22.93;;;5.90;99.90;;;;;;5035413;28;20336;-80
2021/03/01 02:22:01;;;;;;;44.43;24.47;;;5.90;99.90;;;;;;5032047;28;20219;-80
2021/03/01 02:24:49;;;;;;;40.50;23.37;;;5.90;99.90;;;;;;5037612;28;20231;-80
2021/03/01 02:27:38;;;;;;;47.23;25.00;;;5.90;99.90;;;;;;5027644;28;20207;-80
2021/03/01 02:30:26;;;;;;;43.20;23.67;;;5.90;99.90;;;;;;5032767;28;20211;-80
2021/03/01 02:33:14;;;;;;;44.20;22.73;;;5.90;99.90;;;;;;5038959;28;20621;-81
2021/03/01 02:36:02;;;;;;;44.83;24.00;;;5.90;99.90;;;;;;5027216;28;20207;-80
2021/03/01 02:38:50;;;;;;;44.93;23.73;;;5.90;99.90;;;;;;5028570;28;20212;-80
2021/03/01 02:41:36;;;;;;;44.80;23.10;;;6.00;99.90;;;;;;5028986;28;20266;-80
2021/03/01 02:44:22;;;;;;;41.83;23.80;;;6.00;99.90;;;;;;5025393;28;20606;-80
2021/03/01 02:47:07;;;;;;;40.30;23.03;;;6.00;99.90;;;;;;5029427;28;20228;-80
2021/03/01 02:49:55;;;;;;;38.17;20.03;;;6.00;99.90;;;;;;5034997;28;20211;-80
2021/03/01 02:52:40;;;;;;;36.70;21.57;;;6.00;99.90;;;;;;5023885;28;20273;-80
2021/03/01 02:55:26;;;;;;;35.13;20.97;;;6.00;99.90;;;;;;5037302;28;20219;-80
2021/03/01 02:58:13;;;;;;;40.07;21.67;;;6.00;99.90;;;;;;5034699;28;20299;-80
2021/03/01 03:00:59;;;;;;;39.23;22.07;;;6.00;99.90;;;;;;5030276;28;20678;-80
2021/03/01 03:03:47;;;;;;;42.93;22.10;;;6.00;99.90;;;;;;5039737;28;20291;-80
2021/03/01 03:06:35;;;;;;;37.47;21.87;;;6.00;99.90;;;;;;5026885;28;20223;-80
2021/03/01 03:09:22;;;;;;;41.20;22.97;;;6.00;99.90;;;;;;5035924;28;20204;-80
2021/03/01 03:12:08;;;;;;;40.33;22.77;;;6.00;99.90;;;;;;5041671;28;20235;-80
2021/03/01 03:14:53;;;;;;;39.43;23.00;;;6.00;99.90;;;;;;5040098;28;20976;-80
2021/03/01 03:17:41;;;;;;;39.13;21.73;;;6.00;99.90;;;;;;5039655;28;20753;-80
2021/03/01 03:20:26;;;;;;;43.27;22.93;;;6.00;99.90;;;;;;5038835;28;20275;-80
2021/03/01 03:23:12;;;;;;;38.40;21.63;;;6.00;99.90;;;;;;5038108;28;20242;-80
2021/03/01 03:25:57;;;;;;;48.00;25.73;;;6.00;99.90;;;;;;5038769;28;20274;-80
2021/03/01 03:28:43;;;;;;;38.67;21.30;;;6.00;99.90;;;;;;5038360;28;20204;-80
2021/03/01 03:31:28;;;;;;;40.07;21.57;;;6.00;99.90;;;;;;5035988;28;20243;-80
2021/03/01 03:34:13;;;;;;;44.37;24.03;;;6.00;99.90;;;;;;5021439;28;20211;-80
2021/03/01 03:37:04;;;;;;;41.07;22.47;;;6.00;99.90;;;;;;5039636;28;20218;-80
2021/03/01 03:39:55;;;;;;;38.87;22.30;;;6.00;99.90;;;;;;5038167;28;20561;-80
2021/03/01 03:42:42;;;;;;;40.63;24.10;;;6.00;99.90;;;;;;5039179;28;20210;-80
2021/03/01 03:45:28;;;;;;;38.90;23.63;;;6.00;99.90;;;;;;5035790;28;20227;-80
2021/03/01 03:48:15;;;;;;;46.03;24.70;;;6.00;99.90;;;;;;5034910;28;20208;-80
2021/03/01 03:51:03;;;;;;;42.53;25.30;;;6.00;99.90;;;;;;5029687;28;20251;-80
2021/03/01 03:53:51;;;;;;;48.57;26.27;;;5.90;99.90;;;;;;5035094;28;20199;-81
2021/03/01 03:56:38;;;;;;;43.97;25.03;;;6.00;99.90;;;;;;5026620;28;20211;-80
2021/03/01 03:59:27;;;;;;;47.40;25.57;;;6.00;99.90;;;;;;5035691;28;20530;-80
2021/03/01 04:02:14;;;;;;;45.47;26.27;;;6.00;99.90;;;;;;5035889;28;20223;-80
2021/03/01 04:04:59;;;;;;;46.10;23.80;;;5.90;99.90;;;;;;5037314;28;20219;-80
2021/03/01 04:07:45;;;;;;;47.60;25.40;;;6.00;99.90;;;;;;5036862;28;20303;-80
2021/03/01 04:10:33;;;;;;;49.57;26.37;;;6.00;99.90;;;;;;5036085;28;20212;-80
2021/03/01 04:13:20;;;;;;;48.97;25.77;;;5.90;99.90;;;;;;5034998;28;20204;-81
2021/03/01 04:16:08;;;;;;;46.53;25.67;;;5.90;99.90;;;;;;5034327;28;20205;-80
2021/03/01 04:18:57;;;;;;;44.70;24.50;;;5.90;99.90;;;;;;5024925;28;20374;-80
2021/03/01 04:21:44;;;;;;;44.80;24.77;;;5.90;99.90;;;;;;5034057;28;20635;-80
2021/03/01 04:24:30;;;;;;;43.23;25.47;;;5.90;99.90;;;;;;5034042;28;20281;-80
2021/03/01 04:27:17;;;;;;;41.80;23.87;;;5.90;99.90;;;;;;5023514;28;20210;-80
2021/03/01 04:30:03;;;;;;;42.60;21.77;;;5.90;99.90;;;;;;5034609;28;20207;-80
2021/03/01 04:32:49;;;;;;;53.03;28.70;;;5.90;99.90;;;;;;5028204;28;20222;-80
2021/03/01 04:35:37;;;;;;;43.50;24.70;;;5.90;99.90;;;;;;5034979;28;20208;-80
2021/03/01 04:38:23;;;;;;;48.57;25.47;;;5.90;99.90;;;;;;5031449;28;20223;-80
2021/03/01 04:41:08;;;;;;;47.87;26.53;;;5.90;99.90;;;;;;5029577;28;20282;-80
2021/03/01 04:43:54;;;;;;;47.43;26.27;;;5.80;99.90;;;;;;5032043;28;20204;-80
2021/03/01 04:46:42;;;;;;;47.33;24.87;;;5.80;99.90;;;;;;5035477;28;20207;-80
2021/03/01 04:49:28;;;;;;;43.37;23.73;;;5.80;99.90;;;;;;5036766;28;20227;-80
2021/03/01 04:52:14;;;;;;;43.60;24.17;;;5.80;99.90;;;;;;5036633;28;20278;-80
2021/03/01 04:55:01;;;;;;;42.80;23.00;;;5.80;99.90;;;;;;5036392;28;20238;-80
2021/03/01 04:57:46;;;;;;;40.33;22.73;;;5.80;99.90;;;;;;5036638;28;20218;-80
2021/03/01 05:00:33;;;;;;;44.87;22.90;;;5.80;99.90;;;;;;5034686;28;20231;-80
2021/03/01 05:03:18;;;;;;;40.43;22.07;;;5.80;99.90;;;;;;5038235;28;20203;-80
2021/03/01 05:06:04;;;;;;;44.40;24.33;;;5.80;99.90;;;;;;5032735;28;20226;-80
2021/03/01 05:08:50;;;;;;;43.27;23.67;;;5.80;99.90;;;;;;5041618;28;20267;-80
2021/03/01 05:11:36;;;;;;;43.73;22.80;;;5.80;99.90;;;;;;5043104;28;20305;-80
2021/03/01 05:14:21;;;;;;;44.03;22.93;;;5.80;99.90;;;;;;5051990;28;20218;-80
2021/03/01 05:17:06;;;;;;;46.10;25.27;;;5.80;99.90;;;;;;5053063;28;20238;-81
2021/03/01 05:19:50;;;;;;;44.63;22.60;;;5.80;99.90;;;;;;5055401;28;20180;-80
2021/03/01 05:22:35;;;;;;;43.83;23.10;;;5.80;99.90;;;;;;5048104;28;20207;-80
2021/03/01 05:25:21;;;;;;;39.23;22.13;;;5.80;99.90;;;;;;5040054;28;20298;-80
2021/03/01 05:28:06;;;;;;;41.33;19.80;;;5.80;99.90;;;;;;5033213;28;20246;-80
2021/03/01 05:30:51;;;;;;;38.47;22.20;;;5.80;99.90;;;;;;5028191;28;20293;-80
2021/03/01 05:33:36;;;;;;;42.43;20.10;;;5.70;99.90;;;;;;5037452;28;20350;-80
2021/03/01 05:36:23;;;;;;;39.17;19.83;;;5.70;99.90;;;;;;5030169;28;20203;-80
2021/03/01 05:39:08;;;;;;;39.93;20.47;;;5.70;99.90;;;;;;5030960;28;20279;-80
2021/03/01 05:41:55;;;;;;;39.17;20.53;;;5.70;99.90;;;;;;5038597;28;20246;-80
2021/03/01 05:44:41;;;;;;;37.40;20.10;;;5.70;99.90;;;;;;5033255;28;20258;-80
2021/03/01 05:47:26;;;;;;;42.43;21.23;;;5.70;99.90;;;;;;5034345;28;20319;-80
2021/03/01 05:50:12;;;;;;;38.57;21.63;;;5.60;99.90;;;;;;5038220;28;20551;-80
2021/03/01 05:53:00;;;;;;;38.37;20.03;;;5.60;99.90;;;;;;5030153;28;20215;-80
2021/03/01 05:55:46;;;;;;;43.57;21.50;;;5.60;99.90;;;;;;5033969;28;20282;-80
2021/03/01 05:58:33;;;;;;;42.93;21.80;;;5.60;99.90;;;;;;5029509;28;20211;-80
2021/03/01 06:01:18;;;;;;;43.30;22.60;;;5.60;99.90;;;;;;5034401;28;20253;-80
2021/03/01 06:04:05;;;;;;;41.07;21.13;;;5.60;99.90;;;;;;5038231;28;20210;-80
2021/03/01 06:06:51;;;;;;;38.80;20.00;;;5.60;99.90;;;;;;5032873;28;20216;-81
2021/03/01 06:09:36;;;;;;;39.17;20.53;;;5.60;99.90;;;;;;5041119;28;20219;-81
2021/03/01 06:12:23;;;;;;;39.87;20.67;;;5.60;99.90;;;;;;5042492;28;20227;-81
2021/03/01 06:15:11;;;;;;;41.97;21.27;;;5.60;99.90;;;;;;5040462;28;20716;-79
2021/03/01 06:18:07;;;;;;;42.70;21.40;;;5.60;99.90;;;;;;5039036;28;20219;-80
2021/03/01 06:21:07;;;;;;;37.87;19.00;;;5.60;99.90;;;;;;5040467;28;20228;-81
2021/03/01 06:23:53;;;;;;;39.03;20.93;;;5.60;99.90;;;;;;5041026;28;20239;-82
2021/03/01 06:26:38;;;;;;;35.90;18.40;;;5.60;99.90;;;;;;5039872;28;20235;-80
2021/03/01 06:29:23;;;;;;;37.07;17.73;;;5.60;99.90;;;;;;5040485;28;20610;-80
2021/03/01 06:32:12;;;;;;;39.90;20.70;;;5.60;99.90;;;;;;5042616;28;20224;-80
2021/03/01 06:34:57;;;;;;;39.87;20.10;;;5.60;99.90;;;;;;5045417;28;20220;-81
2021/03/01 06:37:41;;;;;;;34.40;18.43;;;5.60;99.90;;;;;;5038564;28;20211;-81
2021/03/01 06:40:26;;;;;;;38.10;19.80;;;5.60;99.90;;;;;;5044314;28;20230;-81
2021/03/01 06:43:12;;;;;;;36.33;18.40;;;5.40;99.90;;;;;;5042066;28;20264;-82
2021/03/01 06:46:06;;;;;;;42.40;21.10;;;5.60;99.90;;;;;;5039370;28;20243;-83
2021/03/01 06:48:52;;;;;;;42.93;20.83;;;5.60;99.90;;;;;;5041221;28;20251;-80
2021/03/01 06:51:37;;;;;;;37.10;19.83;;;5.60;99.90;;;;;;5024947;28;20362;-80
2021/03/01 06:54:23;;;;;;;33.43;19.23;;;5.50;99.90;;;;;;5032634;28;20238;-82
2021/03/01 06:57:26;;;;;;;39.97;20.90;;;5.50;99.90;;;;;;5032692;28;20199;-82
2021/03/01 07:00:44;;;;;;;38.73;20.73;;;5.50;99.90;;;;;;5029706;28;20223;-82
2021/03/01 07:03:29;;;;;;;40.83;19.77;;;5.50;99.90;;;;;;5034959;28;20207;-82
2021/03/01 07:06:15;;;;;;;34.80;18.47;;;5.50;99.90;;;;;;5027329;28;20227;-81
2021/03/01 07:09:00;;;;;;;34.73;18.37;;;5.50;99.90;;;;;;5030008;28;20271;-80
2021/03/01 07:11:47;;;;;;;32.60;18.40;;;5.50;99.90;;;;;;5029890;28;20282;-82
2021/03/01 07:14:34;;;;;;;30.63;18.53;;;5.50;99.90;;;;;;5035162;28;20271;-81
2021/03/01 07:17:19;;;;;;;33.53;19.13;;;5.50;99.90;;;;;;5031875;28;20686;-81
2021/03/01 07:20:07;;;;;;;38.03;19.00;;;5.60;99.90;;;;;;5029148;28;20274;-80
2021/03/01 07:22:53;;;;;;;34.90;19.10;;;5.50;99.90;;;;;;5038707;28;20256;-81
2021/03/01 07:25:38;;;;;;;39.63;18.37;;;5.50;99.90;;;;;;5036088;28;20263;-80
2021/03/01 07:28:24;;;;;;;37.23;19.57;;;5.50;99.90;;;;;;5030839;28;20258;-82
2021/03/01 07:31:11;;;;;;;37.37;20.07;;;5.60;99.90;;;;;;5035541;28;20227;-80
2021/03/01 07:33:56;;;;;;;35.90;19.93;;;5.60;99.90;;;;;;5034920;28;20207;-81
2021/03/01 07:36:44;;;;;;;44.60;19.10;;;5.60;99.90;;;;;;5032168;28;20227;-81
2021/03/01 07:39:32;;;;;;;35.43;19.93;;;5.60;99.90;;;;;;5024794;28;20247;-81
2021/03/01 07:42:17;;;;;;;39.37;21.53;;;5.60;99.90;;;;;;5039503;28;20303;-81
2021/03/01 07:45:03;;;;;;;37.43;19.20;;;5.60;99.90;;;;;;5037678;28;20797;-82
2021/03/01 07:47:48;;;;;;;40.90;21.53;;;5.70;99.90;;;;;;5035277;28;20265;-83
2021/03/01 07:50:35;;;;;;;41.20;22.17;;;5.70;99.90;;;;;;5026704;28;20211;-81
2021/03/01 07:53:44;;;;;;;40.70;21.77;;;5.70;99.90;;;;;;5027884;28;20251;-82
2021/03/01 07:56:51;;;;;;;32.33;19.60;;;5.70;99.90;;;;;;5032946;28;20207;-81
2021/03/01 07:59:36;;;;;;;35.77;20.10;;;5.80;99.90;;;;;;5031592;28;20207;-81
2021/03/01 08:02:23;;;;;;;36.20;19.43;;;5.80;99.90;;;;;;5033473;28;20231;-81
2021/03/01 08:05:23;;;;;;;34.43;18.17;;;5.80;99.90;;;;;;5037485;28;20210;-82
2021/03/01 08:08:08;;;;;;;41.57;22.47;;;5.90;99.90;;;;;;5037541;28;20256;-81
2021/03/01 08:10:54;;;;;;;31.60;18.80;;;5.90;99.90;;;;;;5034312;28;20242;-81
2021/03/01 08:13:40;;;;;;;30.43;15.77;;;5.90;99.90;;;;;;5039290;28;20466;-83
2021/03/01 08:16:25;;;;;;;32.23;18.13;;;6.00;99.90;;;;;;5035012;28;20202;-82
2021/03/01 08:19:33;;;;;;;33.13;19.37;;;6.00;99.90;;;;;;5039843;28;20218;-82
2021/03/01 08:22:24;;;;;;;31.37;16.93;;;6.10;99.90;;;;;;5036495;28;20243;-83
2021/03/01 08:25:10;;;;;;;35.97;17.97;;;6.10;99.90;;;;;;5029807;28;20771;-80
2021/03/01 08:27:55;;;;;;;33.70;18.13;;;6.10;99.90;;;;;;5035596;28;20206;-80
2021/03/01 08:30:43;;;;;;;31.37;17.83;;;6.20;99.90;;;;;;5038437;28;20239;-80
2021/03/01 08:33:28;;;;;;;34.33;17.77;;;6.30;99.90;;;;;;5037447;28;20211;-81
2021/03/01 08:36:25;;;;;;;29.60;17.73;;;6.30;99.90;;;;;;5039332;28;20704;-81
2021/03/01 08:39:09;;;;;;;34.00;18.60;;;6.40;99.90;;;;;;5036399;28;20218;-82
2021/03/01 08:42:00;;;;;;;37.97;18.83;;;6.40;99.90;;;;;;5034412;28;20223;-82
2021/03/01 08:44:53;;;;;;;31.20;17.57;;;6.40;99.90;;;;;;5037742;28;20204;-81
2021/03/01 08:47:51;;;;;;;28.60;16.83;;;6.50;99.90;;;;;;5040492;28;20215;-80
2021/03/01 08:50:38;;;;;;;32.37;17.50;;;6.60;99.90;;;;;;5042098;28;20218;-81
2021/03/01 08:53:24;;;;;;;29.33;15.63;;;6.50;99.90;;;;;;5043961;28;20269;-81
2021/03/01 08:56:17;;;;;;;32.60;16.00;;;6.60;99.90;;;;;;5043978;28;20246;-81
2021/03/01 08:59:16;;;;;;;25.87;14.27;;;6.60;99.90;;;;;;5038742;28;20223;-80
2021/03/01 09:02:02;;;;;;;27.77;15.17;;;6.60;99.90;;;;;;5044905;28;20274;-81
2021/03/01 09:05:05;;;;;;;28.47;17.50;;;6.70;99.90;;;;;;5043047;28;20254;-81
2021/03/01 09:07:49;;;;;;;31.47;15.57;;;6.70;99.90;;;;;;5040124;28;20212;-81
2021/03/01 09:10:36;;;;;;;33.30;18.77;;;6.70;99.90;;;;;;5031447;28;20239;-81
2021/03/01 09:13:24;;;;;;;33.77;18.67;;;6.70;99.90;;;;;;5041111;28;20268;-80
2021/03/01 09:16:10;;;;;;;30.57;17.03;;;6.70;99.90;;;;;;5022001;28;20573;-81
2021/03/01 09:18:59;;;;;;;30.03;16.50;;;6.80;99.90;;;;;;5039925;28;20212;-81
2021/03/01 09:21:46;;;;;;;28.40;17.70;;;6.80;99.90;;;;;;5040645;28;20231;-81
2021/03/01 09:24:31;;;;;;;28.87;15.23;;;6.70;99.90;;;;;;5030927;28;20203;-81
2021/03/01 09:27:30;;;;;;;32.97;15.83;;;6.80;99.90;;;;;;5040667;28;20211;-81
2021/03/01 09:30:34;;;;;;;28.47;15.27;;;6.80;99.90;;;;;;5038089;28;20216;-82
2021/03/01 09:33:35;;;;;;;36.53;18.77;;;6.80;99.90;;;;;;5035580;28;20219;-80
2021/03/01 09:36:20;;;;;;;29.83;16.70;;;6.80;99.90;;;;;;5043927;28;20291;-79
2021/03/01 09:39:08;;;;;;;32.20;17.47;;;6.90;99.90;;;;;;5044326;28;20711;-80
2021/03/01 09:41:55;;;;;;;27.37;14.93;;;6.80;99.90;;;;;;5040254;28;20248;-80
2021/03/01 09:44:42;;;;;;;29.60;16.90;;;6.80;99.90;;;;;;5038252;28;20268;-82
2021/03/01 09:47:27;;;;;;;31.67;17.00;;;6.80;99.90;;;;;;5035552;28;20231;-81
2021/03/01 09:50:16;;;;;;;37.20;19.20;;;6.80;99.90;;;;;;5040114;28;20208;-81
2021/03/01 09:53:04;;;;;;;38.57;18.93;;;6.80;99.90;;;;;;5036723;28;20303;-82
2021/03/01 09:56:05;;;;;;;28.23;14.83;;;7.10;99.90;;;;;;5040079;28;20688;-82
2021/03/01 09:58:50;;;;;;;29.77;16.40;;;6.90;99.90;;;;;;5036785;28;20211;-81
2021/03/01 10:01:35;;;;;;;30.30;15.57;;;7.00;99.90;;;;;;5044636;28;20350;-81
2021/03/01 10:04:29;;;;;;;33.13;17.63;;;7.10;99.90;;;;;;5040701;28;20215;-81
2021/03/01 10:07:18;;;;;;;31.57;16.27;;;7.10;99.90;;;;;;5039212;28;20239;-80
2021/03/01 10:10:15;;;;;;;28.47;15.80;;;7.10;99.90;;;;;;5031718;28;20200;-80
2021/03/01 10:13:00;;;;;;;26.67;14.77;;;7.10;99.90;;;;;;5041141;28;20216;-81
2021/03/01 10:15:47;;;;;;;24.73;14.23;;;7.20;99.90;;;;;;5043598;28;20208;-81
2021/03/01 10:18:33;;;;;;;24.50;13.50;;;7.20;99.90;;;;;;5044029;28;20490;-81
2021/03/01 10:21:31;;;;;;;23.20;13.10;;;7.20;99.90;;;;;;5047028;28;20579;-81
2021/03/01 10:24:17;;;;;;;24.47;12.97;;;7.30;99.90;;;;;;5048553;28;20243;-80
2021/03/01 10:27:04;;;;;;;24.90;14.23;;;7.40;99.90;;;;;;5048930;28;20303;-81
2021/03/01 10:29:50;;;;;;;28.97;15.73;;;7.30;99.90;;;;;;5046605;28;20291;-81
2021/03/01 10:32:35;;;;;;;27.40;15.80;;;7.30;99.90;;;;;;5033978;28;20284;-82
2021/03/01 10:35:21;;;;;;;26.73;14.90;;;7.30;99.90;;;;;;5045092;28;20204;-81
2021/03/01 10:38:08;;;;;;;24.60;13.27;;;7.30;99.90;;;;;;5047976;28;20214;-81
2021/03/01 10:40:53;;;;;;;28.00;15.33;;;7.30;99.90;;;;;;5042301;28;20246;-81
2021/03/01 10:43:48;;;;;;;26.87;13.83;;;7.30;99.90;;;;;;5040779;28;20250;-81
2021/03/01 10:46:40;;;;;;;26.00;13.67;;;7.30;99.90;;;;;;5040280;28;20239;-80
2021/03/01 10:49:28;;;;;;;25.57;13.17;;;7.40;99.90;;;;;;5046111;28;20287;-81
2021/03/01 10:52:15;;;;;;;26.20;14.70;;;7.30;99.90;;;;;;5049876;28;20265;-81
2021/03/01 10:55:01;;;;;;;26.63;15.23;;;7.40;99.90;;;;;;5038161;28;20208;-80
2021/03/01 10:57:47;;;;;;;28.03;14.77;;;7.40;99.90;;;;;;5044365;28;20199;-81
2021/03/01 11:00:31;;;;;;;28.77;16.00;;;7.40;99.90;;;;;;5043918;28;20211;-80
2021/03/01 11:03:17;;;;;;;26.43;16.13;;;7.50;99.90;;;;;;5037310;28;20203;-81
2021/03/01 11:06:02;;;;;;;31.77;18.13;;;7.50;99.90;;;;;;5040147;28;20219;-80
2021/03/01 11:08:46;;;;;;;28.00;17.17;;;7.50;99.90;;;;;;5040544;28;20250;-81
2021/03/01 11:11:34;;;;;;;25.53;14.03;;;7.60;99.90;;;;;;5040954;28;20243;-81
2021/03/01 11:14:20;;;;;;;27.20;14.93;;;7.60;99.90;;;;;;5034502;28;20231;-82
2021/03/01 11:17:07;;;;;;;25.47;15.97;;;7.60;99.90;;;;;;5040148;28;20719;-82
2021/03/01 11:19:53;;;;;;;27.47;15.93;;;7.70;99.90;;;;;;5040482;28;20254;-82
2021/03/01 11:22:38;;;;;;;30.87;15.60;;;7.70;99.90;;;;;;5040409;28;20313;-81
2021/03/01 11:25:22;;;;;;;26.87;14.03;;;7.80;99.90;;;;;;5032758;28;20227;-82
2021/03/01 11:28:09;;;;;;;27.93;15.43;;;7.80;99.90;;;;;;5041174;28;20207;-82
2021/03/01 11:30:54;;;;;;;30.83;18.27;;;7.90;99.90;;;;;;5040603;28;20219;-81
2021/03/01 11:33:40;;;;;;;30.03;17.30;;;8.00;99.90;;;;;;5038994;28;20235;-80
2021/03/01 11:36:25;;;;;;;23.60;13.57;;;8.00;99.90;;;;;;5035291;28;20212;-81
2021/03/01 11:39:13;;;;;;;25.43;14.33;;;8.00;99.90;;;;;;5039170;28;20772;-81
2021/03/01 11:41:58;;;;;;;23.83;12.97;;;8.10;99.90;;;;;;5030591;28;20242;-81
2021/03/01 11:44:43;;;;;;;25.70;14.40;;;8.10;99.90;;;;;;5038764;28;20255;-81
2021/03/01 11:47:28;;;;;;;26.27;14.20;;;8.30;99.90;;;;;;5032510;28;20243;-82
2021/03/01 11:50:13;;;;;;;24.60;14.40;;;8.30;99.90;;;;;;5038522;28;20553;-82
2021/03/01 11:52:59;;;;;;;26.23;14.83;;;8.40;99.90;;;;;;5043143;28;20215;-82
2021/03/01 11:55:45;;;;;;;24.30;13.37;;;8.50;99.90;;;;;;5042768;28;20266;-82
2021/03/01 11:58:30;;;;;;;24.47;15.93;;;8.60;99.90;;;;;;5039791;28;20211;-81
2021/03/01 12:01:14;;;;;;;25.67;15.20;;;8.70;99.90;;;;;;5041108;28;20271;-82
2021/03/01 12:03:59;;;;;;;23.87;13.37;;;8.80;99.90;;;;;;5046250;28;20278;-81
2021/03/01 12:06:44;;;;;;;27.47;15.23;;;8.90;99.90;;;;;;5039991;28;20231;-81
2021/03/01 12:09:31;;;;;;;25.90;13.97;;;9.00;99.90;;;;;;5049427;28;20941;-80
2021/03/01 12:12:16;;;;;;;25.80;14.17;;;9.00;99.90;;;;;;5056250;28;20235;-81
2021/03/01 12:15:00;;;;;;;23.17;13.37;;;9.00;99.90;;;;;;5047774;28;20191;-81
2021/03/01 12:17:45;;;;;;;25.63;14.60;;;9.10;99.90;;;;;;5056856;28;20223;-82
2021/03/01 12:20:30;;;;;;;28.37;16.07;;;9.20;99.90;;;;;;5043716;28;20268;-82
2021/03/01 12:23:15;;;;;;;25.90;15.97;;;9.30;99.90;;;;;;5029445;28;20214;-81
2021/03/01 12:26:01;;;;;;;25.80;16.37;;;9.40;99.90;;;;;;5038464;28;20235;-82
2021/03/01 12:28:47;;;;;;;30.70;19.03;;;9.50;99.90;;;;;;5039852;28;20211;-81
2021/03/01 12:31:31;;;;;;;29.37;17.27;;;9.60;99.90;;;;;;5039123;28;20230;-82
2021/03/01 12:34:16;;;;;;;26.93;16.43;;;9.70;99.90;;;;;;5030836;28;20266;-83
2021/03/01 12:37:01;;;;;;;26.70;16.97;;;9.80;99.90;;;;;;5040099;28;20616;-82
2021/03/01 12:39:46;;;;;;;25.10;15.20;;;9.90;99.90;;;;;;5027018;28;20247;-82
2021/03/01 12:42:32;;;;;;;21.97;13.83;;;10.00;99.90;;;;;;5039883;28;20226;-82
2021/03/01 12:45:17;;;;;;;23.20;14.47;;;10.00;99.90;;;;;;5036779;28;20220;-82
2021/03/01 12:48:02;;;;;;;20.83;13.43;;;10.00;99.90;;;;;;5033720;28;20250;-82
2021/03/01 12:50:48;;;;;;;22.50;13.17;;;10.10;99.90;;;;;;5030527;28;20776;-82
2021/03/01 12:53:32;;;;;;;22.13;14.13;;;10.10;99.90;;;;;;5039419;28;20211;-81
2021/03/01 12:56:18;;;;;;;25.60;16.23;;;10.10;99.90;;;;;;5040523;28;20227;-82
2021/03/01 12:59:03;;;;;;;26.10;15.13;;;10.20;99.90;;;;;;5028674;28;20208;-81
2021/03/01 13:01:48;;;;;;;28.37;16.97;;;10.20;99.90;;;;;;5039023;28;20262;-82
2021/03/01 13:04:33;;;;;;;25.00;15.17;;;10.20;99.90;;;;;;5039942;28;20231;-83
2021/03/01 13:07:18;;;;;;;27.10;15.30;;;10.30;99.90;;;;;;5036277;28;20258;-81
2021/03/01 13:10:04;;;;;;;30.00;16.50;;;10.30;99.90;;;;;;5032550;28;20200;-82
2021/03/01 13:12:49;;;;;;;25.43;15.97;;;10.40;99.90;;;;;;5037812;28;20235;-82
2021/03/01 13:15:38;;;;;;;26.73;15.23;;;10.40;99.90;;;;;;5029558;28;20288;-82
2021/03/01 13:18:22;;;;;;;23.03;15.43;;;10.50;99.90;;;;;;5033272;28;20255;-81
2021/03/01 13:21:08;;;;;;;25.27;15.50;;;10.60;99.90;;;;;;5026075;28;20231;-81
2021/03/01 13:23:53;;;;;;;29.53;19.17;;;10.70;99.90;;;;;;5037873;28;20207;-81
2021/03/01 13:26:38;;;;;;;26.40;17.27;;;10.70;99.90;;;;;;5026003;28;20588;-82
2021/03/01 13:29:23;;;;;;;26.07;15.83;;;10.80;99.90;;;;;;5033339;28;20287;-82
2021/03/01 13:32:09;;;;;;;24.27;15.40;;;10.90;99.90;;;;;;5035715;28;20254;-83
2021/03/01 13:34:55;;;;;;;22.63;15.63;;;11.20;99.90;;;;;;5033557;28;20554;-82
2021/03/01 13:37:40;;;;;;;26.17;16.23;;;11.20;99.90;;;;;;5033963;28;20211;-81
2021/03/01 13:40:25;;;;;;;26.77;16.13;;;11.50;99.90;;;;;;5025252;28;20270;-82
2021/03/01 13:43:10;;;;;;;23.83;15.23;;;11.80;99.90;;;;;;5032356;28;20208;-83
2021/03/01 13:45:55;;;;;;;21.17;14.80;;;12.30;99.90;;;;;;5026486;28;20216;-83
2021/03/01 13:48:41;;;;;;;20.40;14.20;;;12.90;99.90;;;;;;5034243;28;20250;-82
2021/03/01 13:51:25;;;;;;;19.00;12.37;;;13.50;99.90;;;;;;5033818;28;20782;-82
2021/03/01 13:54:10;;;;;;;20.87;13.07;;;14.20;99.90;;;;;;5035359;28;20215;-83
2021/03/01 13:56:55;;;;;;;17.87;11.87;;;14.90;99.90;;;;;;5036882;28;20703;-85
2021/03/01 13:59:40;;;;;;;17.80;11.97;;;15.50;99.90;;;;;;5034095;28;20637;-85
2021/03/01 14:02:25;;;;;;;16.30;11.10;;;16.10;99.90;;;;;;5029622;28;20293;-85
2021/03/01 14:05:12;;;;;;;18.23;12.60;;;16.70;99.90;;;;;;5035782;28;20307;-84
2021/03/01 14:07:56;;;;;;;18.27;13.00;;;17.30;99.90;;;;;;5029086;28;20214;-83
2021/03/01 14:10:42;;;;;;;16.93;11.83;;;17.90;99.90;;;;;;5044109;28;20231;-84
2021/03/01 14:13:27;;;;;;;17.77;12.40;;;18.40;99.90;;;;;;5030155;28;20257;-84
2021/03/01 14:16:12;;;;;;;17.93;11.83;;;18.90;99.60;;;;;;5036782;28;20645;-84